createdAt,value
2023-05-03T00:01:00.889Z,88.96
2023-05-03T00:03:32.957Z,89.20
2023-05-03T00:06:14.468Z,89.44
2023-05-03T00:08:45.898Z,89.36
2023-05-03T00:11:17.319Z,88.42
2023-05-03T00:13:48.760Z,88.30
2023-05-03T00:16:20.897Z,87.87
2023-05-03T00:18:52.262Z,87.95
2023-05-03T00:21:24.830Z,88.32
2023-05-03T00:23:56.203Z,87.69
2023-05-03T00:26:27.892Z,87.22
2023-05-03T00:28:59.225Z,87.57
2023-05-03T00:31:30.749Z,87.60
2023-05-03T00:34:02.217Z,87.69
2023-05-03T00:36:35.742Z,88.23
2023-05-03T00:39:08.430Z,88.03
2023-05-03T00:41:39.776Z,88.15
2023-05-03T00:44:11.101Z,87.89
2023-05-03T00:46:44.463Z,88.09
2023-05-03T00:49:16.120Z,88.07
2023-05-03T00:51:48.139Z,88.23
2023-05-03T00:54:20.032Z,87.98
2023-05-03T00:56:52.720Z,88.19
2023-05-03T00:59:24.304Z,87.20
2023-05-03T01:01:55.805Z,87.30
2023-05-03T01:04:27.708Z,87.58
2023-05-03T01:07:11.172Z,87.18
2023-05-03T01:09:51.724Z,87.19
2023-05-03T01:12:34.681Z,86.82
2023-05-03T01:15:06.596Z,86.89
2023-05-03T01:17:44.904Z,87.31
2023-05-03T01:20:17.685Z,87.13
2023-05-03T01:22:50.099Z,87.48
2023-05-03T01:25:21.648Z,88.08
2023-05-03T01:27:52.958Z,88.10
2023-05-03T01:30:26.709Z,88.99
2023-05-03T01:32:58.041Z,89.73
2023-05-03T01:35:29.412Z,89.65
2023-05-03T01:38:00.890Z,89.29
2023-05-03T01:40:36.116Z,88.74
2023-05-03T01:43:08.258Z,88.94
2023-05-03T01:45:40.515Z,88.39
2023-05-03T01:48:13.457Z,87.89
2023-05-03T01:50:45.624Z,87.78
2023-05-03T01:53:16.987Z,87.60
2023-05-03T01:55:48.303Z,86.94
2023-05-03T01:58:19.666Z,87.07
2023-05-03T02:00:51.128Z,87.19
2023-05-03T02:03:22.561Z,86.87
2023-05-03T02:05:53.891Z,87.15
2023-05-03T02:08:25.347Z,87.44
2023-05-03T02:10:56.657Z,86.95
2023-05-03T02:13:28.014Z,86.90
2023-05-03T02:15:59.333Z,86.78
2023-05-03T02:18:31.720Z,87.07
2023-05-03T02:21:04.276Z,87.12
2023-05-03T02:23:35.626Z,86.98
2023-05-03T02:26:07.972Z,87.64
2023-05-03T02:28:39.343Z,87.14
2023-05-03T02:31:10.699Z,88.10
2023-05-03T02:33:42.177Z,88.72
2023-05-03T02:36:13.571Z,88.92
2023-05-03T02:38:44.982Z,88.22
2023-05-03T02:41:16.293Z,88.32
2023-05-03T02:43:47.592Z,88.87
2023-05-03T02:46:18.932Z,88.35
2023-05-03T02:48:50.255Z,88.05
2023-05-03T02:51:21.673Z,88.56
2023-05-03T02:53:53.336Z,88.74
2023-05-03T02:56:26.881Z,89.33
2023-05-03T02:58:58.249Z,89.00
2023-05-03T03:01:29.944Z,89.21
2023-05-03T03:04:01.490Z,90.52
2023-05-03T03:06:32.984Z,90.71
2023-05-03T03:09:04.929Z,91.56
2023-05-03T03:11:36.362Z,91.39
2023-05-03T03:14:07.740Z,90.47
2023-05-03T03:16:39.253Z,90.49
2023-05-03T03:19:10.704Z,89.78
2023-05-03T03:21:42.147Z,89.88
2023-05-03T03:24:13.465Z,90.06
2023-05-03T03:26:44.993Z,89.47
2023-05-03T03:29:16.337Z,89.78
2023-05-03T03:31:47.777Z,90.02
2023-05-03T03:34:19.209Z,90.05
2023-05-03T03:36:50.723Z,89.58
2023-05-03T03:39:22.194Z,89.92
2023-05-03T03:41:53.568Z,89.74
2023-05-03T03:44:24.883Z,89.64
2023-05-03T03:46:56.231Z,90.58
2023-05-03T03:50:26.339Z,90.52
2023-05-03T03:52:57.832Z,89.82
2023-05-03T03:55:29.409Z,90.15
2023-05-03T03:58:01.016Z,89.77
2023-05-03T04:00:34.167Z,89.61
2023-05-03T04:03:07.888Z,89.76
2023-05-03T04:05:39.581Z,89.53
2023-05-03T04:08:11.112Z,89.41
2023-05-03T04:10:43.284Z,89.31
2023-05-03T04:13:14.769Z,88.93
2023-05-03T04:15:46.205Z,88.48
2023-05-03T04:18:17.700Z,89.29
2023-05-03T04:20:49.278Z,89.08
2023-05-03T04:23:20.929Z,88.74
2023-05-03T04:25:52.449Z,88.93
2023-05-03T04:28:25.026Z,89.27
2023-05-03T04:30:56.818Z,89.32
2023-05-03T04:33:29.796Z,89.11
2023-05-03T04:36:01.335Z,89.15
2023-05-03T04:38:33.512Z,89.36
2023-05-03T04:41:05.018Z,90.04
2023-05-03T04:43:36.600Z,92.00
2023-05-03T04:46:08.254Z,92.11
2023-05-03T04:48:40.578Z,92.99
2023-05-03T04:51:11.985Z,93.68
2023-05-03T04:53:43.494Z,96.26
2023-05-03T04:56:15.632Z,96.24
2023-05-03T04:58:47.219Z,99.90
2023-05-03T05:01:19.455Z,100.00
2023-05-03T05:03:57.115Z,100.00
2023-05-03T05:06:28.802Z,100.00
2023-05-03T05:09:00.700Z,100.00
2023-05-03T05:11:32.252Z,100.00
2023-05-03T05:14:03.840Z,100.00
2023-05-03T05:16:35.389Z,100.00
2023-05-03T05:19:06.940Z,100.00
2023-05-03T05:21:41.968Z,100.00
2023-05-03T05:24:13.611Z,100.00
2023-05-03T05:26:45.399Z,100.00
2023-05-03T05:29:16.931Z,100.00
2023-05-03T05:31:48.508Z,99.28
2023-05-03T05:34:19.961Z,98.88
2023-05-03T05:36:52.237Z,98.93
2023-05-03T05:39:24.005Z,99.26
2023-05-03T05:41:55.780Z,98.46
2023-05-03T05:44:27.266Z,98.60
2023-05-03T05:46:58.818Z,98.78
2023-05-03T05:49:30.476Z,99.17
2023-05-03T05:52:02.037Z,99.10
2023-05-03T05:54:33.527Z,98.16
2023-05-03T05:57:04.943Z,98.04
2023-05-03T05:59:36.712Z,97.51
2023-05-03T06:02:16.555Z,97.78
2023-05-03T06:04:48.354Z,97.03
2023-05-03T06:07:19.866Z,96.77
2023-05-03T06:09:51.443Z,95.73
2023-05-03T06:12:22.951Z,96.11
2023-05-03T06:15:02.415Z,97.42
2023-05-03T06:17:35.646Z,97.01
2023-05-03T06:20:12.122Z,97.00
2023-05-03T06:22:43.658Z,96.94
2023-05-03T06:25:17.003Z,97.40
2023-05-03T06:27:49.405Z,96.57
2023-05-03T06:30:20.895Z,96.68
2023-05-03T06:32:52.491Z,96.58
2023-05-03T06:35:24.044Z,97.25
2023-05-03T06:37:55.727Z,96.93
2023-05-03T06:40:27.585Z,96.69
2023-05-03T06:42:59.130Z,97.41
2023-05-03T06:45:30.699Z,97.10
2023-05-03T06:48:02.306Z,98.18
2023-05-03T06:50:33.865Z,97.84
2023-05-03T06:53:05.422Z,97.37
2023-05-03T06:55:36.940Z,96.83
2023-05-03T06:58:11.602Z,96.21
2023-05-03T07:00:43.188Z,95.94
2023-05-03T07:03:14.854Z,95.40
2023-05-03T07:05:47.108Z,95.11
2023-05-03T07:08:18.721Z,95.07
2023-05-03T07:10:50.334Z,93.99
2023-05-03T07:13:21.820Z,93.88
2023-05-03T07:15:53.368Z,93.93
2023-05-03T07:18:25.012Z,94.75
2023-05-03T07:20:56.847Z,94.96
2023-05-03T07:23:28.394Z,95.44
2023-05-03T07:25:59.950Z,95.53
2023-05-03T07:28:31.612Z,95.56
2023-05-03T07:31:04.696Z,94.82
2023-05-03T07:33:37.582Z,92.49
2023-05-03T07:36:09.589Z,92.69
2023-05-03T07:38:41.120Z,93.04
2023-05-03T07:41:12.616Z,92.37
2023-05-03T07:43:47.099Z,92.76
2023-05-03T07:46:18.823Z,93.83
2023-05-03T07:48:50.481Z,93.61
2023-05-03T07:51:21.989Z,92.66
2023-05-03T07:53:53.450Z,92.87
2023-05-03T07:56:27.522Z,93.71
2023-05-03T07:59:08.478Z,93.27
2023-05-03T08:01:41.764Z,92.50
2023-05-03T08:04:13.506Z,91.10
2023-05-03T08:06:45.424Z,90.01
2023-05-03T08:09:17.192Z,89.89
2023-05-03T08:11:48.686Z,90.15
2023-05-03T08:14:20.341Z,90.20
2023-05-03T08:16:51.868Z,89.59
2023-05-03T08:19:23.464Z,90.52
2023-05-03T08:21:55.667Z,89.07
2023-05-03T08:24:27.334Z,88.63
2023-05-03T08:26:59.050Z,88.88
2023-05-03T08:29:30.697Z,89.71
2023-05-03T08:32:02.464Z,89.44
2023-05-03T08:34:33.999Z,88.33
2023-05-03T08:37:05.590Z,86.02
2023-05-03T08:39:37.213Z,85.82
2023-05-03T08:42:09.221Z,84.15
2023-05-03T08:44:48.625Z,84.35
2023-05-03T08:47:21.974Z,83.21
2023-05-03T08:49:53.950Z,83.23
2023-05-03T08:52:25.445Z,80.08
2023-05-03T08:54:57.346Z,81.81
2023-05-03T08:57:29.799Z,81.40
2023-05-03T09:00:01.982Z,81.81
2023-05-03T09:02:35.048Z,81.30
2023-05-03T09:05:38.891Z,81.34
2023-05-03T09:08:13.486Z,82.96
2023-05-03T09:10:45.312Z,82.35
2023-05-03T09:13:16.963Z,80.77
2023-05-03T09:15:55.741Z,81.39
2023-05-03T09:18:27.363Z,81.66
2023-05-03T09:20:59.239Z,81.23
2023-05-03T09:23:31.252Z,80.43
2023-05-03T09:26:03.002Z,78.38
2023-05-03T09:28:42.131Z,81.03
2023-05-03T09:31:14.478Z,78.04
2023-05-03T09:33:46.193Z,79.07
2023-05-03T09:36:17.881Z,77.04
2023-05-03T09:38:51.718Z,76.39
2023-05-03T09:41:31.657Z,76.55
2023-05-03T09:44:03.286Z,76.70
2023-05-03T09:46:34.859Z,77.08
2023-05-03T09:49:06.783Z,75.73
2023-05-03T09:51:41.208Z,76.51
2023-05-03T09:54:14.996Z,73.96
2023-05-03T09:56:47.682Z,73.16
2023-05-03T09:59:19.255Z,75.06
2023-05-03T10:01:55.709Z,73.88
2023-05-03T10:04:28.609Z,73.36
2023-05-03T10:07:07.401Z,71.58
2023-05-03T10:09:58.802Z,69.88
2023-05-03T10:12:30.617Z,68.60
2023-05-03T10:15:07.367Z,67.63
2023-05-03T10:17:46.973Z,67.39
2023-05-03T10:20:33.415Z,67.64
2023-05-03T10:23:05.112Z,66.03
2023-05-03T10:25:38.873Z,65.79
2023-05-03T10:28:10.845Z,65.96
2023-05-03T10:30:42.356Z,64.86
2023-05-03T10:33:14.073Z,65.65
2023-05-03T10:35:53.692Z,67.00
2023-05-03T10:38:26.983Z,68.12
2023-05-03T10:41:01.397Z,69.00
2023-05-03T10:43:35.879Z,70.89
2023-05-03T10:46:29.214Z,67.66
2023-05-03T10:49:18.805Z,66.44
2023-05-03T10:51:50.449Z,67.50
2023-05-03T10:54:22.004Z,65.20
2023-05-03T10:56:56.059Z,65.95
2023-05-03T10:59:47.489Z,67.00
2023-05-03T11:02:27.180Z,67.02
2023-05-03T11:05:04.354Z,65.64
2023-05-03T11:07:36.077Z,64.31
2023-05-03T11:10:17.899Z,64.62
2023-05-03T11:12:49.452Z,64.37
2023-05-03T11:15:21.221Z,64.66
2023-05-03T11:17:53.007Z,65.21
2023-05-03T11:20:24.844Z,66.00
2023-05-03T11:22:56.422Z,64.66
2023-05-03T11:25:28.233Z,63.35
2023-05-03T11:28:01.925Z,63.91
2023-05-03T11:30:35.131Z,64.32
2023-05-03T11:33:06.914Z,63.67
2023-05-03T11:35:39.145Z,65.79
2023-05-03T11:38:10.546Z,63.85
2023-05-03T11:40:42.126Z,65.19
2023-05-03T11:43:13.729Z,63.22
2023-05-03T11:45:48.495Z,62.87
2023-05-03T11:48:20.173Z,62.35
2023-05-03T11:51:02.604Z,62.22
2023-05-03T11:53:33.959Z,61.31
2023-05-03T11:56:12.322Z,63.33
2023-05-03T11:59:10.064Z,64.28
2023-05-03T12:01:42.347Z,60.12
2023-05-03T12:04:14.415Z,61.93
2023-05-03T12:06:52.833Z,61.60
2023-05-03T12:09:27.306Z,59.71
2023-05-03T12:12:06.534Z,60.20
2023-05-03T12:15:03.756Z,59.84
2023-05-03T12:17:38.725Z,60.05
2023-05-03T12:23:09.854Z,58.58
2023-05-03T12:25:44.403Z,57.89
2023-05-03T12:28:20.923Z,58.08
2023-05-03T12:30:53.645Z,57.88
2023-05-03T12:33:28.183Z,55.73
2023-05-03T12:36:02.680Z,53.67
2023-05-03T12:38:37.522Z,52.70
2023-05-03T12:41:09.619Z,53.30
2023-05-03T12:46:33.240Z,50.53
2023-05-03T12:49:07.646Z,53.42
2023-05-03T12:51:42.600Z,52.04
2023-05-03T12:54:18.577Z,50.19
2023-05-03T12:56:54.784Z,49.14
2023-05-03T13:04:57.021Z,50.41
2023-05-03T13:07:30.484Z,51.20
2023-05-03T13:12:38.893Z,51.35
2023-05-03T13:15:10.493Z,50.60
2023-05-03T13:17:43.055Z,49.28
2023-05-03T13:20:16.199Z,46.88
2023-05-03T13:22:51.129Z,47.57
2023-05-03T13:25:25.265Z,47.75
2023-05-03T13:27:57.425Z,46.11
2023-05-03T13:30:29.501Z,44.86
2023-05-03T13:33:00.944Z,44.94
2023-05-03T13:35:32.509Z,44.43
2023-05-03T13:38:04.005Z,45.57
2023-05-03T13:40:35.512Z,44.88
2023-05-03T13:43:07.030Z,43.08
2023-05-03T13:45:38.633Z,43.76
2023-05-03T13:48:17.639Z,42.44
2023-05-03T13:50:50.804Z,44.03
2023-05-03T13:53:22.384Z,42.34
2023-05-03T13:55:53.919Z,42.46
2023-05-03T13:58:25.591Z,43.25
2023-05-03T14:00:57.200Z,42.17
2023-05-03T14:03:28.998Z,44.41
2023-05-03T14:06:00.793Z,44.96
2023-05-03T14:08:33.786Z,42.87
2023-05-03T14:11:06.324Z,44.32
2023-05-03T14:13:51.509Z,43.86
2023-05-03T14:19:01.634Z,43.47
2023-05-03T14:21:33.203Z,43.72
2023-05-03T14:24:05.352Z,44.74
2023-05-03T14:26:37.483Z,45.33
2023-05-03T14:29:09.123Z,44.36
2023-05-03T14:31:40.904Z,43.56
2023-05-03T14:34:12.888Z,41.67
2023-05-03T14:36:44.419Z,41.23
2023-05-03T14:39:16.571Z,40.67
2023-05-03T14:41:50.135Z,39.22
2023-05-03T14:44:21.874Z,37.46
2023-05-03T14:46:53.623Z,34.52
2023-05-03T14:49:25.598Z,34.25
2023-05-03T14:51:57.668Z,29.31
2023-05-03T14:54:29.141Z,27.01
2023-05-03T14:57:01.323Z,24.62
2023-05-03T14:59:33.676Z,24.74
2023-05-03T15:02:05.262Z,24.74
2023-05-03T15:04:39.712Z,17.59
2023-05-03T15:07:11.554Z,100.00
2023-05-03T15:09:44.779Z,18.91
2023-05-03T15:12:16.506Z,18.83
2023-05-03T15:14:48.326Z,14.63
2023-05-03T15:17:20.104Z,15.36
2023-05-03T15:19:52.755Z,14.18
2023-05-03T15:22:24.373Z,13.58
2023-05-03T15:24:55.880Z,14.71
2023-05-03T15:27:27.405Z,14.67
2023-05-03T15:29:58.998Z,14.52
2023-05-03T15:32:31.038Z,14.72
2023-05-03T15:35:02.550Z,18.19
2023-05-03T15:37:37.107Z,20.17
2023-05-03T15:40:10.520Z,23.94
2023-05-03T15:42:42.008Z,26.97
2023-05-03T15:45:13.934Z,30.22
2023-05-03T15:47:45.967Z,31.46
2023-05-03T15:50:17.500Z,34.50
2023-05-03T15:52:48.918Z,35.61
2023-05-03T15:55:20.427Z,36.35
2023-05-03T15:57:53.157Z,37.31
2023-05-03T16:00:25.763Z,39.14
2023-05-03T16:02:58.016Z,39.34
2023-05-03T16:05:31.077Z,33.18
2023-05-03T16:08:02.690Z,30.83
2023-05-03T16:10:35.360Z,32.33
2023-05-03T16:13:08.376Z,34.02
2023-05-03T16:15:40.302Z,34.60
2023-05-03T16:18:12.163Z,36.95
2023-05-03T16:20:43.751Z,37.58
2023-05-03T16:23:15.871Z,39.14
2023-05-03T16:25:47.382Z,40.61
2023-05-03T16:28:18.901Z,42.12
2023-05-03T16:30:50.428Z,42.06
2023-05-03T16:33:22.199Z,42.57
2023-05-03T16:35:53.796Z,44.14
2023-05-03T16:38:30.327Z,44.89
2023-05-03T16:41:02.130Z,45.32
2023-05-03T16:43:33.592Z,44.74
2023-05-03T16:46:05.601Z,45.39
2023-05-03T16:48:37.280Z,44.99
2023-05-03T16:51:08.852Z,44.56
2023-05-03T16:53:41.416Z,44.71
2023-05-03T16:56:12.919Z,44.30
2023-05-03T16:58:44.404Z,45.18
2023-05-03T17:01:16.304Z,45.66
2023-05-03T17:03:47.950Z,44.86
2023-05-03T17:06:19.647Z,44.48
2023-05-03T17:08:51.216Z,44.24
2023-05-03T17:11:22.742Z,44.55
2023-05-03T17:13:54.196Z,44.76
2023-05-03T17:16:26.351Z,46.12
2023-05-03T17:18:57.971Z,45.35
2023-05-03T17:21:29.575Z,46.28
2023-05-03T17:24:01.079Z,44.99
2023-05-03T17:26:32.674Z,45.73
2023-05-03T17:29:06.224Z,46.11
2023-05-03T17:31:37.823Z,45.57
2023-05-03T17:34:09.335Z,46.28
2023-05-03T17:36:41.374Z,47.15
2023-05-03T17:39:13.181Z,46.97
2023-05-03T17:41:44.795Z,45.91
2023-05-03T17:44:16.650Z,47.32
2023-05-03T17:46:48.589Z,48.17
2023-05-03T17:49:20.200Z,48.47
2023-05-03T17:51:51.951Z,48.63
2023-05-03T17:54:24.412Z,49.48
2023-05-03T17:56:56.429Z,49.76
2023-05-03T17:59:27.991Z,50.13
2023-05-03T18:02:00.701Z,50.78
2023-05-03T18:04:32.785Z,50.82
2023-05-03T18:07:04.325Z,52.12
2023-05-03T18:09:35.898Z,51.83
2023-05-03T18:12:07.421Z,53.58
2023-05-03T18:14:38.940Z,53.93
2023-05-03T18:17:10.493Z,54.50
2023-05-03T18:19:45.166Z,53.48
2023-05-03T18:22:16.659Z,54.36
2023-05-03T18:24:54.529Z,54.54
2023-05-03T18:27:25.976Z,54.11
2023-05-03T18:29:58.491Z,53.62
2023-05-03T18:32:29.976Z,54.82
2023-05-03T18:35:02.485Z,54.87
2023-05-03T18:37:35.081Z,54.68
2023-05-03T18:40:08.894Z,55.44
2023-05-03T18:42:40.365Z,55.58
2023-05-03T18:45:12.127Z,56.17
2023-05-03T18:47:43.684Z,56.23
2023-05-03T18:50:17.357Z,56.67
2023-05-03T18:52:50.687Z,56.77
2023-05-03T18:55:22.283Z,57.83
2023-05-03T18:57:53.787Z,57.76
2023-05-03T19:00:25.300Z,58.35
2023-05-03T19:02:56.872Z,58.52
2023-05-03T19:05:28.455Z,59.45
2023-05-03T19:08:00.422Z,58.05
2023-05-03T19:10:32.964Z,58.53
2023-05-03T19:13:04.951Z,58.59
2023-05-03T19:15:36.659Z,57.82
2023-05-03T19:18:08.288Z,58.48
2023-05-03T19:20:39.886Z,59.67
2023-05-03T19:23:12.902Z,60.57
2023-05-03T19:25:44.434Z,61.01
2023-05-03T19:28:16.006Z,61.13
2023-05-03T19:30:51.424Z,61.38
2023-05-03T19:33:23.222Z,62.53
2023-05-03T19:35:56.822Z,62.22
2023-05-03T19:38:29.277Z,62.20
2023-05-03T19:41:05.886Z,63.21
2023-05-03T19:43:39.608Z,63.66
2023-05-03T19:46:11.310Z,64.58
2023-05-03T19:48:43.060Z,64.21
2023-05-03T19:51:15.105Z,65.20
2023-05-03T19:53:48.786Z,64.28
2023-05-03T19:56:22.136Z,65.04
2023-05-03T19:58:54.435Z,65.49
2023-05-03T20:01:26.396Z,65.67
2023-05-03T20:03:58.129Z,65.49
2023-05-03T20:06:29.897Z,66.54
2023-05-03T20:09:01.782Z,67.56
2023-05-03T20:11:33.299Z,67.66
2023-05-03T20:14:04.880Z,68.66
2023-05-03T20:16:38.966Z,68.47
2023-05-03T20:19:10.998Z,67.87
2023-05-03T20:21:42.559Z,68.28
2023-05-03T20:24:15.379Z,68.30
2023-05-03T20:26:46.923Z,68.74
2023-05-03T20:29:18.642Z,69.84
2023-05-03T20:31:57.285Z,69.52
2023-05-03T20:34:30.373Z,70.42
2023-05-03T20:37:02.001Z,70.32
2023-05-03T20:39:35.200Z,69.89
2023-05-03T20:42:07.699Z,70.46
2023-05-03T20:44:39.234Z,70.90
2023-05-03T20:47:11.058Z,71.25
2023-05-03T20:49:42.627Z,71.03
2023-05-03T20:52:14.174Z,70.76
2023-05-03T20:54:46.526Z,71.94
2023-05-03T20:57:18.105Z,72.21
2023-05-03T20:59:49.751Z,71.94
2023-05-03T21:02:21.973Z,72.50
2023-05-03T21:04:53.632Z,71.77
2023-05-03T21:07:26.853Z,72.45
2023-05-03T21:09:59.359Z,72.17
2023-05-03T21:12:30.868Z,72.56
2023-05-03T21:15:02.382Z,72.70
2023-05-03T21:17:33.940Z,72.78
2023-05-03T21:20:06.372Z,72.91
2023-05-03T21:22:37.997Z,73.18
2023-05-03T21:25:11.390Z,73.38
2023-05-03T21:27:42.908Z,73.24
2023-05-03T21:30:14.472Z,73.16
2023-05-03T21:32:49.526Z,73.14
2023-05-03T21:35:21.119Z,73.00
2023-05-03T21:37:52.718Z,72.75
2023-05-03T21:40:24.218Z,72.57
2023-05-03T21:42:55.698Z,72.28
2023-05-03T21:45:27.184Z,71.64
2023-05-03T21:48:00.709Z,72.01
2023-05-03T21:50:32.257Z,72.16
2023-05-03T21:53:03.796Z,70.93
2023-05-03T21:55:36.099Z,71.25
2023-05-03T21:58:07.422Z,71.74
2023-05-03T22:00:40.448Z,71.91
2023-05-03T22:03:12.371Z,71.47
2023-05-03T22:05:48.793Z,71.29
2023-05-03T22:08:20.605Z,71.43
2023-05-03T22:10:52.324Z,71.68
2023-05-03T22:13:23.890Z,71.39
2023-05-03T22:15:55.577Z,72.34
2023-05-03T22:18:28.065Z,72.60
2023-05-03T22:20:59.632Z,72.00
2023-05-03T22:23:31.270Z,72.18
2023-05-03T22:26:02.759Z,72.09
2023-05-03T22:28:34.227Z,72.48
2023-05-03T22:31:06.200Z,72.68
2023-05-03T22:33:37.810Z,73.08
2023-05-03T22:36:09.328Z,72.74
2023-05-03T22:38:42.980Z,72.86
2023-05-03T22:41:14.792Z,72.92
2023-05-03T22:43:46.281Z,72.84
2023-05-03T22:46:20.544Z,73.75
2023-05-03T22:48:52.646Z,73.84
2023-05-03T22:51:24.850Z,73.46
2023-05-03T22:53:56.358Z,73.76
2023-05-03T22:56:27.880Z,73.99
2023-05-03T22:58:59.340Z,74.08
2023-05-03T23:01:30.881Z,73.83
2023-05-03T23:04:02.777Z,74.31
2023-05-03T23:06:34.367Z,74.25
2023-05-03T23:09:06.368Z,74.53
2023-05-03T23:11:37.914Z,74.58
2023-05-03T23:14:09.434Z,74.75
2023-05-03T23:16:41.639Z,74.82
2023-05-03T23:19:13.266Z,74.66
2023-05-03T23:21:44.731Z,74.97
2023-05-03T23:24:16.213Z,75.26
2023-05-03T23:26:47.673Z,75.51
2023-05-03T23:29:19.547Z,75.47
2023-05-03T23:31:51.401Z,75.52
2023-05-03T23:34:23.428Z,75.50
2023-05-03T23:36:54.906Z,75.61
2023-05-03T23:39:26.388Z,75.10
2023-05-03T23:41:58.808Z,75.42
2023-05-03T23:44:42.952Z,75.22
2023-05-03T23:47:21.790Z,75.49
2023-05-03T23:49:53.334Z,75.47
2023-05-03T23:52:24.826Z,75.89
2023-05-03T23:54:56.318Z,76.58
2023-05-03T23:57:27.753Z,76.49
2023-05-03T23:59:59.220Z,76.32
